Time;durP1;ratioP1;P1;durP2;ratioP2;P2;SDS_P1;SDS_P2;PMS_P1;PMS_P2;Temp;Humidity;BMP_temperature;BMP_pressure;BME280_temperature;BME280_humidity;BME280_pressure;Samples;Min_cycle;Max_cycle;Signal;HPM_P1;HPM_P2
2023/10/23 08:42:02;;;;;;;;;;;;;;;6.54;100.00;101415.59;4944383;28;20009;-81
2023/10/23 08:44:48;;;;;;;;;;;;;;;6.66;100.00;101420.63;4942852;28;19930;-80
2023/10/23 08:47:34;;;;;;;;;;;;;;;6.73;100.00;101415.22;4942280;29;20406;-83
2023/10/23 08:50:23;;;;;;;;;;;;;;;6.81;100.00;101408.03;4928957;28;19927;-81
2023/10/23 08:53:09;;;;;;;;;;;;;;;6.89;100.00;101411.41;4933718;29;19930;-83
2023/10/23 08:55:59;;;;;;;;;;;;;;;6.95;100.00;101415.66;4931111;29;19931;-84
2023/10/23 08:58:45;;;;;;;;;;;;;;;7.02;100.00;101424.28;4930258;29;20045;-84
2023/10/23 09:01:30;;;;;;;;;;;;;;;7.07;100.00;101420.66;4929046;28;20394;-83
2023/10/23 09:04:16;;;;;;;;;;;;;;;7.16;100.00;101430.16;4929962;28;19926;-84
2023/10/23 09:07:02;;;;;;;;;;;;;;;7.29;100.00;101414.03;4942311;28;19930;-83
2023/10/23 09:09:50;;;;;;;;;;;;;;;7.40;100.00;101412.03;4946128;28;20248;-81
2023/10/23 09:12:36;;;;;;;;;;;;;;;7.46;100.00;101413.66;4945203;28;19934;-81
2023/10/23 09:15:23;;;;;;;;;;;;;;;7.51;100.00;101419.69;4944052;29;19934;-84
2023/10/23 09:18:08;;;;;;;;;;;;;;;7.61;100.00;101420.34;4946378;28;19931;-83
2023/10/23 09:20:54;;;;;;;;;;;;;;;7.71;100.00;101415.72;4924310;29;19937;-82
2023/10/23 09:23:50;;;;;;;;;;;;;;;7.80;100.00;101417.28;4943790;28;21819;-83
2023/10/23 09:26:36;;;;;;;;;;;;;;;7.91;100.00;101412.63;4936968;28;20397;-83
2023/10/23 09:29:22;;;;;;;;;;;;;;;8.01;100.00;101410.59;4944091;28;19926;-84
2023/10/23 09:32:08;;;;;;;;;;;;;;;8.07;100.00;101412.22;4941341;28;20307;-82
2023/10/23 09:34:53;;;;;;;;;;;;;;;8.12;100.00;101416.44;4926722;29;19962;-82
2023/10/23 09:37:39;;;;;;;;;;;;;;;8.16;100.00;101406.69;4941799;28;19934;-81
2023/10/23 09:40:25;;;;;;;;;;;;;;;8.20;100.00;101408.34;4943572;29;19933;-81
2023/10/23 09:43:14;;;;;;;;;;;;;;;8.25;100.00;101401.19;4923491;29;19923;-83
2023/10/23 09:45:59;;;;;;;;;;;;;;;8.29;100.00;101397.53;4925551;28;20327;-82
2023/10/23 09:48:47;;;;;;;;;;;;;;;8.35;100.00;101395.66;4922444;28;20002;-83
2023/10/23 09:51:39;;;;;;;;;;;;;;;8.41;100.00;101391.06;4918352;29;19934;-81
2023/10/23 09:54:24;;;;;;;;;;;;;;;8.51;100.00;101383.78;4921864;29;20009;-82
2023/10/23 09:57:10;;;;;;;;;;;;;;;8.59;100.00;101390.63;4924304;29;20454;-82
2023/10/23 09:59:57;;;;;;;;;;;;;;;8.64;100.00;101391.34;4924157;28;19937;-80
2023/10/23 10:02:53;;;;;;;;;;;;;;;8.70;100.00;101396.47;4911757;29;19933;-82
2023/10/23 10:05:45;;;;;;;;;;;;;;;8.79;100.00;101393.56;4936920;29;20387;-82
2023/10/23 10:08:32;;;;;;;;;;;;;;;8.86;100.00;101386.31;4922939;28;19927;-82
2023/10/23 10:11:18;;;;;;;;;;;;;;;8.92;100.00;101395.81;4923328;28;22041;-82
2023/10/23 10:14:04;;;;;;;;;;;;;;;8.96;100.00;101387.78;4910734;29;19926;-82
2023/10/23 10:16:49;;;;;;;;;;;;;;;9.03;100.00;101391.09;4922252;29;19931;-82
2023/10/23 10:19:35;;;;;;;;;;;;;;;9.09;100.00;101388.28;4921680;29;21470;-82
2023/10/23 10:22:20;;;;;;;;;;;;;;;9.19;100.00;101393.25;4925951;28;19934;-81
2023/10/23 10:25:09;;;;;;;;;;;;;;;9.26;100.00;101388.66;4927503;28;20368;-81
2023/10/23 10:27:58;;;;;;;;;;;;;;;9.32;100.00;101384.03;4922523;29;19970;-79
2023/10/23 10:30:46;;;;;;;;;;;;;;;9.41;100.00;101382.03;4921331;28;19923;-80
2023/10/23 10:33:32;;;;;;;;;;;;;;;9.49;100.00;101388.78;4925209;28;19931;-78
2023/10/23 10:36:17;;;;;;;;;;;;;;;9.58;100.00;101384.16;4925304;28;19937;-79
2023/10/23 10:39:05;;;;;;;;;;;;;;;9.65;100.00;101381.22;4929088;28;20592;-82
2023/10/23 10:42:01;;;;;;;;;;;;;;;9.71;100.00;101376.66;4928507;29;19942;-81
2023/10/23 10:44:56;;;;;;;;;;;;;;;9.76;100.00;101378.22;4927493;29;19981;-80
2023/10/23 10:47:49;;;;;;;;;;;;;;;9.82;100.00;101361.31;4942407;28;20021;-79
2023/10/23 10:50:36;;;;;;;;;;;;;;;9.88;100.00;101365.50;4937913;29;19930;-80
2023/10/23 10:53:22;;;;;;;;;;;;;;;9.92;100.00;101361.88;4914287;29;19930;-79
2023/10/23 10:56:08;;;;;;;;;;;;;;;9.96;100.00;101362.63;4924222;28;19930;-79
2023/10/23 10:58:54;;;;;;;;;;;;;;;10.03;100.00;101361.50;4926374;29;19926;-80
2023/10/23 11:01:40;;;;;;;;;;;;;;;10.09;100.00;101352.47;4941318;28;19934;-80
2023/10/23 11:04:25;;;;;;;;;;;;;;;10.12;100.00;101358.50;4942610;28;19961;-80
2023/10/23 11:07:11;;;;;;;;;;;;;;;10.18;100.00;101358.28;4944546;28;19927;-80
2023/10/23 11:09:59;;;;;;;;;;;;;;;10.25;100.00;101352.78;4944590;28;20025;-81
2023/10/23 11:12:44;;;;;;;;;;;;;;;10.31;100.00;101348.13;4943230;28;20321;-79
2023/10/23 11:15:30;;;;;;;;;;;;;;;10.39;100.00;101349.63;4941816;28;20704;-79
2023/10/23 11:18:16;;;;;;;;;;;;;;;10.50;100.00;101351.94;4945027;28;19966;-79
2023/10/23 11:21:02;;;;;;;;;;;;;;;10.55;100.00;101349.94;4928301;29;19923;-79
2023/10/23 11:23:48;;;;;;;;;;;;;;;10.62;100.00;101343.50;4943378;28;20011;-80
2023/10/23 11:26:33;;;;;;;;;;;;;;;10.69;100.00;101344.16;4939340;28;20465;-81
2023/10/23 11:29:19;;;;;;;;;;;;;;;10.73;100.00;101343.97;4922089;29;19930;-80
2023/10/23 11:32:08;;;;;;;;;;;;;;;10.79;100.00;101336.72;4922465;28;19934;-81
2023/10/23 11:34:58;;;;;;;;;;;;;;;10.80;100.00;101338.44;4923554;28;19934;-80
2023/10/23 11:37:43;;;;;;;;;;;;;;;10.82;100.00;101334.81;4939155;28;20341;-79
2023/10/23 11:40:29;;;;;;;;;;;;;;;10.84;100.00;101340.06;4940122;28;21455;-79
2023/10/23 11:43:15;;;;;;;;;;;;;;;10.86;100.00;101338.22;4931690;28;20398;-80
2023/10/23 11:46:01;;;;;;;;;;;;;;;10.93;100.00;101341.47;4919819;28;19927;-82
2023/10/23 11:48:47;;;;;;;;;;;;;;;10.97;100.00;101336.00;4919714;29;20410;-80
2023/10/23 11:51:33;;;;;;;;;;;;;;;11.04;100.00;101335.75;4921590;28;19935;-79
2023/10/23 11:54:19;;;;;;;;;;;;;;;11.06;100.00;101333.91;4921280;28;19941;-82
2023/10/23 11:57:05;;;;;;;;;;;;;;;11.09;100.00;101334.66;4922490;29;19927;-80
2023/10/23 11:59:54;;;;;;;;;;;;;;;11.12;100.00;101341.63;4921699;29;19941;-78
2023/10/23 12:02:40;;;;;;;;;;;;;;;11.15;100.00;101322.94;4932289;28;19978;-77
2023/10/23 12:05:26;;;;;;;;;;;;;;;11.18;100.00;101328.13;4922141;28;19942;-80
2023/10/23 12:08:12;;;;;;;;;;;;;;;11.21;100.00;101321.81;4906290;29;19986;-81
2023/10/23 12:10:58;;;;;;;;;;;;;;;11.22;100.00;101313.81;4926014;29;19927;-81
2023/10/23 12:13:43;;;;;;;;;;;;;;;11.25;100.00;101329.59;4916298;29;21185;-81
2023/10/23 12:16:30;;;;;;;;;;;;;;;11.27;100.00;101317.16;4921766;28;20345;-81
2023/10/23 12:19:16;;;;;;;;;;;;;;;11.31;100.00;101325.84;4920346;29;20395;-82
2023/10/23 12:22:07;;;;;;;;;;;;;;;11.34;100.00;101324.84;4923644;29;19970;-80
2023/10/23 12:24:52;;;;;;;;;;;;;;;11.35;100.00;101323.91;4919160;28;19935;-80
2023/10/23 12:27:39;;;;;;;;;;;;;;;11.38;100.00;101313.19;4920873;29;19931;-79
2023/10/23 12:30:25;;;;;;;;;;;;;;;11.40;100.00;101309.53;4921520;29;19942;-78
2023/10/23 12:33:11;;;;;;;;;;;;;;;11.43;100.00;101305.91;4921291;28;19973;-82
2023/10/23 12:35:56;;;;;;;;;;;;;;;11.44;100.00;101297.00;4923276;29;19942;-82
2023/10/23 12:38:42;;;;;;;;;;;;;;;11.46;100.00;101299.59;4917122;29;19931;-80
2023/10/23 12:41:28;;;;;;;;;;;;;;;11.48;100.00;101297.75;4925318;29;19922;-81
2023/10/23 12:44:13;;;;;;;;;;;;;;;11.49;100.00;101289.72;4922178;29;19938;-82
2023/10/23 12:46:59;;;;;;;;;;;;;;;11.50;100.00;101280.00;4921546;29;19927;-81
2023/10/23 12:49:45;;;;;;;;;;;;;;;11.53;100.00;101278.09;4923238;28;19942;-81
2023/10/23 12:52:33;;;;;;;;;;;;;;;11.55;100.00;101278.88;4925000;29;19943;-81
2023/10/23 12:55:19;;;;;;;;;;;;;;;11.57;100.00;101283.25;4922301;29;19931;-81
2023/10/23 12:58:07;;;;;;;;;;;;;;;11.59;100.00;101282.25;4920983;29;19958;-80
2023/10/23 13:00:53;;;;;;;;;;;;;;;11.61;100.00;101279.53;4923639;28;20008;-80
2023/10/23 13:03:39;;;;;;;;;;;;;;;11.63;100.00;101286.50;4923162;29;20033;-79
2023/10/23 13:06:28;;;;;;;;;;;;;;;11.64;100.00;101272.31;4924723;28;19926;-80
2023/10/23 13:09:17;;;;;;;;;;;;;;;11.68;100.00;101283.66;4925029;28;19966;-82
2023/10/23 13:12:03;;;;;;;;;;;;;;;11.68;100.00;101278.34;4924844;29;20123;-79
2023/10/23 13:14:54;;;;;;;;;;;;;;;11.66;100.00;101274.91;4923327;29;19931;-80
2023/10/23 13:17:39;;;;;;;;;;;;;;;11.59;100.00;101276.09;4923708;29;20425;-80
2023/10/23 13:20:30;;;;;;;;;;;;;;;11.54;100.00;101276.28;4920617;29;19950;-80
2023/10/23 13:23:16;;;;;;;;;;;;;;;11.51;100.00;101271.13;4925144;29;19982;-79
2023/10/23 13:26:01;;;;;;;;;;;;;;;11.44;100.00;101265.19;4927616;28;19930;-79
2023/10/23 13:28:47;;;;;;;;;;;;;;;11.37;100.00;101261.97;4923321;29;19956;-79
2023/10/23 13:31:35;;;;;;;;;;;;;;;11.36;100.00;101256.72;4926671;28;20673;-81
2023/10/23 13:34:20;;;;;;;;;;;;;;;11.34;100.00;101253.28;4913510;29;20006;-81
2023/10/23 13:37:06;;;;;;;;;;;;;;;11.31;100.00;101256.91;4926098;29;19935;-81
2023/10/23 13:39:55;;;;;;;;;;;;;;;11.30;100.00;101254.31;4925780;29;19934;-80
2023/10/23 13:42:43;;;;;;;;;;;;;;;11.25;100.00;101244.78;4926321;29;20043;-80
2023/10/23 13:45:28;;;;;;;;;;;;;;;11.21;100.00;101242.31;4925866;29;19927;-81
2023/10/23 13:48:14;;;;;;;;;;;;;;;11.18;100.00;101232.72;4927458;29;20014;-81
2023/10/23 13:51:00;;;;;;;;;;;;;;;11.16;100.00;101231.91;4928224;28;19957;-80
2023/10/23 13:53:46;;;;;;;;;;;;;;;11.16;100.00;101217.81;4925090;28;20655;-80
2023/10/23 13:56:31;;;;;;;;;;;;;;;11.13;100.00;101219.66;4922202;29;19977;-79
2023/10/23 13:59:19;;;;;;;;;;;;;;;11.10;100.00;101205.66;4920008;28;19958;-79
2023/10/23 14:02:05;;;;;;;;;;;;;;;11.07;100.00;101203.16;4918824;29;20450;-80
2023/10/23 14:04:53;;;;;;;;;;;;;;;11.04;100.00;101204.13;4922232;29;19930;-79
2023/10/23 14:07:39;;;;;;;;;;;;;;;11.02;100.00;101206.00;4922383;29;20378;-78
2023/10/23 14:10:25;;;;;;;;;;;;;;;11.00;100.00;101206.06;4920700;28;19931;-79
2023/10/23 14:13:10;;;;;;;;;;;;;;;10.98;100.00;101199.97;4923102;29;19938;-78
2023/10/23 14:15:59;;;;;;;;;;;;;;;10.99;100.00;101199.03;4921758;28;19931;-78
2023/10/23 14:18:48;;;;;;;;;;;;;;;10.98;100.00;101193.78;4908642;29;20364;-80
2023/10/23 14:21:33;;;;;;;;;;;;;;;10.97;100.00;101202.69;4916787;29;19935;-79
2023/10/23 14:24:20;;;;;;;;;;;;;;;10.96;100.00;101198.31;4922651;29;20062;-80
2023/10/23 14:27:05;;;;;;;;;;;;;;;10.95;100.00;101194.78;4921120;29;19927;-80
2023/10/23 14:29:54;;;;;;;;;;;;;;;10.94;100.00;101187.75;4928564;28;19927;-78
2023/10/23 14:32:42;;;;;;;;;;;;;;;10.94;100.00;101190.41;4911444;29;19938;-78
2023/10/23 14:35:34;;;;;;;;;;;;;;;10.93;100.00;101193.13;4916619;28;19930;-78
2023/10/23 14:38:26;;;;;;;;;;;;;;;10.91;100.00;101181.72;4916740;29;20282;-78
2023/10/23 14:41:11;;;;;;;;;;;;;;;10.88;100.00;101177.41;4915121;28;19934;-78
2023/10/23 14:44:00;;;;;;;;;;;;;;;10.84;100.00;101168.75;4936168;28;19931;-78
2023/10/23 14:46:48;;;;;;;;;;;;;;;10.83;100.00;101168.78;4936622;28;20022;-78
2023/10/23 14:49:33;;;;;;;;;;;;;;;10.81;100.00;101165.34;4933734;28;20638;-78
2023/10/23 14:52:19;;;;;;;;;;;;;;;10.79;100.00;101161.91;4918653;29;19942;-79
2023/10/23 14:55:05;;;;;;;;;;;;;;;10.77;100.00;101159.31;4935576;29;19926;-79
2023/10/23 14:57:51;;;;;;;;;;;;;;;10.75;100.00;101149.72;4935777;29;19933;-79
2023/10/23 15:00:43;;;;;;;;;;;;;;;10.73;100.00;101144.47;4917824;29;20384;-78
2023/10/23 15:03:29;;;;;;;;;;;;;;;10.71;100.00;101146.34;4919129;28;20888;-77
2023/10/23 15:06:14;;;;;;;;;;;;;;;10.69;100.00;101145.53;4921153;29;20455;-78
2023/10/23 15:09:00;;;;;;;;;;;;;;;10.66;100.00;101140.34;4935182;28;20497;-78
2023/10/23 15:11:46;;;;;;;;;;;;;;;10.61;100.00;101140.56;4937174;29;20463;-79
2023/10/23 15:14:31;;;;;;;;;;;;;;;10.58;100.00;101143.34;4939484;28;20113;-78
2023/10/23 15:17:17;;;;;;;;;;;;;;;10.54;100.00;101142.59;4918395;29;19946;-78
2023/10/23 15:20:03;;;;;;;;;;;;;;;10.52;100.00;101138.28;4935312;28;19941;-78
2023/10/23 15:22:49;;;;;;;;;;;;;;;10.48;100.00;101137.56;4935090;29;20544;-78
2023/10/23 15:25:34;;;;;;;;;;;;;;;10.45;100.00;101132.38;4937838;29;19926;-78
2023/10/23 15:28:21;;;;;;;;;;;;;;;10.40;100.00;101126.38;4920662;29;19934;-78
2023/10/23 15:31:07;;;;;;;;;;;;;;;10.37;100.00;101124.72;4916994;29;19930;-79
2023/10/23 15:33:52;;;;;;;;;;;;;;;10.33;100.00;101123.13;4936439;28;19997;-78
2023/10/23 15:36:38;;;;;;;;;;;;;;;10.28;100.00;101118.00;4935309;29;19927;-79
2023/10/23 15:39:24;;;;;;;;;;;;;;;10.25;100.00;101114.63;4935621;29;19934;-79
2023/10/23 15:42:09;;;;;;;;;;;;;;;10.23;100.00;101113.84;4934673;28;19930;-79
2023/10/23 15:44:58;;;;;;;;;;;;;;;10.19;100.00;101108.66;4920772;29;20148;-78
2023/10/23 15:47:46;;;;;;;;;;;;;;;10.16;100.00;101105.25;4937049;28;20013;-77
2023/10/23 15:50:37;;;;;;;;;;;;;;;10.11;100.00;101097.50;4936026;29;19930;-78
2023/10/23 15:53:24;;;;;;;;;;;;;;;10.07;100.00;101101.19;4920665;29;19927;-78
2023/10/23 15:56:10;;;;;;;;;;;;;;;10.03;100.00;101096.97;4937099;28;20029;-79
2023/10/23 15:58:55;;;;;;;;;;;;;;;9.97;100.00;101081.31;4935816;29;19931;-79
2023/10/23 16:01:44;;;;;;;;;;;;;;;9.94;100.00;101081.44;4935654;28;19926;-77
2023/10/23 16:04:30;;;;;;;;;;;;;;;9.85;100.00;101075.59;4935590;28;19941;-78
2023/10/23 16:07:15;;;;;;;;;;;;;;;9.81;100.00;101073.97;4930071;29;19952;-80
2023/10/23 16:10:01;;;;;;;;;;;;;;;9.75;100.00;101067.13;4942335;28;19930;-80
2023/10/23 16:12:47;;;;;;;;;;;;;;;9.72;100.00;101069.03;4944182;28;19965;-80
2023/10/23 16:15:32;;;;;;;;;;;;;;;9.68;100.00;101062.13;4926271;28;19939;-79
2023/10/23 16:18:18;;;;;;;;;;;;;;;9.62;100.00;101053.53;4941420;28;19965;-80
2023/10/23 16:21:06;;;;;;;;;;;;;;;9.58;100.00;101065.13;4927446;29;19933;-77
2023/10/23 16:23:54;;;;;;;;;;;;;;;9.55;100.00;101072.31;4940436;29;19938;-79
2023/10/23 16:26:39;;;;;;;;;;;;;;;9.50;100.00;101069.84;4940192;28;19930;-79
2023/10/23 16:29:25;;;;;;;;;;;;;;;9.47;100.00;101067.31;4940572;28;20147;-80
2023/10/23 16:32:11;;;;;;;;;;;;;;;9.43;100.00;101057.78;4939527;29;20397;-79
2023/10/23 16:34:57;;;;;;;;;;;;;;;9.40;100.00;101060.53;4937527;28;20555;-79
2023/10/23 16:37:43;;;;;;;;;;;;;;;9.37;100.00;101062.38;4922134;29;20401;-78
2023/10/23 16:40:28;;;;;;;;;;;;;;;9.35;100.00;101069.50;4935525;29;19930;-79
2023/10/23 16:43:23;;;;;;;;;;;;;;;9.33;100.00;101068.69;4922749;28;19962;-79
2023/10/23 16:46:11;;;;;;;;;;;;;;;9.31;100.00;101074.97;4925317;28;19934;-80
2023/10/23 16:48:57;;;;;;;;;;;;;;;9.28;100.00;101072.41;4937798;28;19966;-78
2023/10/23 16:51:43;;;;;;;;;;;;;;;9.25;100.00;101068.09;4938328;29;19977;-81
2023/10/23 16:54:28;;;;;;;;;;;;;;;9.22;100.00;101066.44;4937895;28;19938;-81
2023/10/23 16:57:14;;;;;;;;;;;;;;;9.21;100.00;101063.88;4921274;29;19970;-80
2023/10/23 17:00:00;;;;;;;;;;;;;;;9.17;100.00;101064.88;4938848;28;20029;-80
2023/10/23 17:02:45;;;;;;;;;;;;;;;9.12;100.00;101067.69;4942849;28;19937;-78
2023/10/23 17:05:33;;;;;;;;;;;;;;;9.06;100.00;101075.84;4940654;28;20014;-79
2023/10/23 17:08:19;;;;;;;;;;;;;;;9.02;100.00;101080.38;4939979;29;20525;-79
2023/10/23 17:11:08;;;;;;;;;;;;;;;8.98;100.00;101078.75;4925097;29;20363;-80
2023/10/23 17:13:55;;;;;;;;;;;;;;;8.97;100.00;101082.31;4923773;29;19927;-79
2023/10/23 17:16:41;;;;;;;;;;;;;;;8.92;100.00;101074.53;4942442;28;20370;-80
2023/10/23 17:19:26;;;;;;;;;;;;;;;8.90;100.00;101081.66;4941475;28;19930;-80
2023/10/23 17:22:12;;;;;;;;;;;;;;;8.88;100.00;101083.47;4914319;29;19934;-80
2023/10/23 17:24:58;;;;;;;;;;;;;;;8.87;100.00;101073.00;4925330;29;19927;-79
2023/10/23 17:27:43;;;;;;;;;;;;;;;8.85;100.00;101066.88;4940703;28;19934;-80
2023/10/23 17:30:29;;;;;;;;;;;;;;;8.83;100.00;101070.44;4940935;29;19930;-78
2023/10/23 17:33:15;;;;;;;;;;;;;;;8.80;100.00;101065.28;4939301;28;19931;-80
2023/10/23 17:36:00;;;;;;;;;;;;;;;8.79;100.00;101063.56;4938086;28;20021;-78
2023/10/23 17:38:46;;;;;;;;;;;;;;;8.76;100.00;101058.38;4939367;28;19934;-79
2023/10/23 17:41:32;;;;;;;;;;;;;;;8.74;100.00;101044.38;4923869;28;19922;-79
2023/10/23 17:44:17;;;;;;;;;;;;;;;8.73;100.00;101036.50;4902385;29;19931;-79
2023/10/23 17:47:03;;;;;;;;;;;;;;;8.70;100.00;101032.19;4904404;29;19942;-78
2023/10/23 17:49:49;;;;;;;;;;;;;;;8.71;100.00;101025.13;4912535;29;19928;-80
2023/10/23 17:52:36;;;;;;;;;;;;;;;8.69;100.00;101026.06;4899631;29;19931;-79
2023/10/23 17:55:22;;;;;;;;;;;;;;;8.69;100.00;101018.13;4903426;29;20010;-79
2023/10/23 17:58:10;;;;;;;;;;;;;;;8.69;100.00;101011.97;4905196;29;19966;-82
2023/10/23 18:00:56;;;;;;;;;;;;;;;8.72;100.00;101008.38;4903335;29;20671;-79
2023/10/23 18:03:44;;;;;;;;;;;;;;;8.72;100.00;100996.03;4906346;29;20010;-78
2023/10/23 18:06:30;;;;;;;;;;;;;;;8.76;100.00;100984.44;4903300;29;20006;-78
2023/10/23 18:09:16;;;;;;;;;;;;;;;8.81;100.00;100973.72;4889841;29;19927;-79
2023/10/23 18:12:02;;;;;;;;;;;;;;;8.82;100.00;100971.03;4890025;29;20478;-79
2023/10/23 18:14:50;;;;;;;;;;;;;;;8.85;100.00;100961.28;4906217;29;19974;-78
2023/10/23 18:17:35;;;;;;;;;;;;;;;8.87;100.00;100962.94;4916317;29;20026;-79
2023/10/23 18:20:22;;;;;;;;;;;;;;;8.90;100.00;100956.69;4903804;29;19942;-77
2023/10/23 18:23:08;;;;;;;;;;;;;;;8.91;100.00;100950.50;4907031;29;19946;-81
2023/10/23 18:25:57;;;;;;;;;;;;;;;8.93;100.00;100940.75;4905612;29;19935;-80
2023/10/23 18:28:43;;;;;;;;;;;;;;;8.95;100.00;100937.09;4908584;28;19927;-79
2023/10/23 18:31:28;;;;;;;;;;;;;;;8.98;100.00;100936.13;4907814;29;19930;-81
2023/10/23 18:34:14;;;;;;;;;;;;;;;9.01;100.00;100933.41;4905406;29;20260;-80
2023/10/23 18:37:00;;;;;;;;;;;;;;;9.02;100.00;100923.69;4907289;28;21731;-79
2023/10/23 18:39:48;;;;;;;;;;;;;;;9.04;100.00;100921.88;4907189;28;19986;-81
2023/10/23 18:42:36;;;;;;;;;;;;;;;9.04;100.00;100928.00;4916966;28;19938;-79
2023/10/23 18:45:21;;;;;;;;;;;;;;;9.06;100.00;100917.38;4902107;29;19931;-80
2023/10/23 18:48:10;;;;;;;;;;;;;;;9.07;100.00;100919.09;4899532;29;21609;-80
2023/10/23 18:50:59;;;;;;;;;;;;;;;9.05;100.00;100920.94;4892134;29;20075;-81
2023/10/23 18:53:45;;;;;;;;;;;;;;;9.05;100.00;100921.78;4906988;29;20018;-80
2023/10/23 18:56:32;;;;;;;;;;;;;;;9.05;100.00;100911.22;4909460;28;20017;-78
2023/10/23 18:59:17;;;;;;;;;;;;;;;9.05;100.00;100921.78;4905492;29;19938;-79
2023/10/23 19:02:03;;;;;;;;;;;;;;;9.04;100.00;100916.59;4905217;29;19991;-80
2023/10/23 19:04:49;;;;;;;;;;;;;;;9.04;100.00;100906.84;4904286;29;19931;-79
2023/10/23 19:07:34;;;;;;;;;;;;;;;9.02;100.00;100905.19;4906177;29;19934;-78
2023/10/23 19:10:20;;;;;;;;;;;;;;;9.01;100.00;100914.91;4903934;29;19935;-77
2023/10/23 19:13:06;;;;;;;;;;;;;;;8.99;100.00;100908.81;4907808;29;19931;-77
2023/10/23 19:15:58;;;;;;;;;;;;;;;8.97;100.00;100923.84;4904964;29;20348;-76
2023/10/23 19:18:43;;;;;;;;;;;;;;;8.96;100.00;100922.13;4903911;29;19937;-78
2023/10/23 19:21:29;;;;;;;;;;;;;;;8.94;100.00;100921.34;4903868;29;19923;-78
2023/10/23 19:24:15;;;;;;;;;;;;;;;8.93;100.00;100920.47;4901368;29;19927;-78
2023/10/23 19:27:02;;;;;;;;;;;;;;;8.95;100.00;100925.69;4902328;29;20611;-77
2023/10/23 19:29:48;;;;;;;;;;;;;;;8.94;100.00;100919.53;4901191;29;20565;-79
2023/10/23 19:32:37;;;;;;;;;;;;;;;8.96;100.00;100924.78;4900738;29;19949;-80
2023/10/23 19:35:24;;;;;;;;;;;;;;;8.94;100.00;100919.53;4902297;29;19938;-80
2023/10/23 19:38:10;;;;;;;;;;;;;;;8.96;100.00;100943.25;4902242;29;19934;-79
2023/10/23 19:41:01;;;;;;;;;;;;;;;8.96;100.00;100943.25;4904041;29;19969;-78
2023/10/23 19:43:48;;;;;;;;;;;;;;;8.96;100.00;100956.47;4911077;29;19931;-78
2023/10/23 19:46:34;;;;;;;;;;;;;;;8.96;100.00;100946.78;4905064;29;19931;-81
2023/10/23 19:49:23;;;;;;;;;;;;;;;9.00;100.00;100942.25;4922242;29;19954;-82
2023/10/23 19:52:13;;;;;;;;;;;;;;;9.02;100.00;100939.53;4922404;28;19926;-79
2023/10/23 19:54:59;;;;;;;;;;;;;;;9.02;100.00;100926.31;4918208;29;19923;-77
2023/10/23 19:57:56;;;;;;;;;;;;;;;9.02;100.00;100926.31;4918729;28;20339;-80
2023/10/23 20:00:42;;;;;;;;;;;;;;;8.99;100.00;100914.09;4922138;29;19937;-79
2023/10/23 20:03:27;;;;;;;;;;;;;;;8.98;100.00;100908.88;4920065;29;19927;-79
2023/10/23 20:06:13;;;;;;;;;;;;;;;8.96;100.00;100906.28;4918647;28;19990;-78
2023/10/23 20:08:59;;;;;;;;;;;;;;;8.93;100.00;100907.28;4921494;28;19938;-78
2023/10/23 20:11:44;;;;;;;;;;;;;;;8.93;100.00;100909.91;4920037;28;19957;-78
2023/10/23 20:14:32;;;;;;;;;;;;;;;8.90;100.00;100899.47;4917358;29;19934;-79
2023/10/23 20:17:18;;;;;;;;;;;;;;;8.90;100.00;100895.97;4915999;28;19926;-78
2023/10/23 20:20:05;;;;;;;;;;;;;;;8.90;100.00;100895.97;4917787;29;19980;-79
2023/10/23 20:22:53;;;;;;;;;;;;;;;8.90;100.00;100893.31;4916284;29;19970;-78
2023/10/23 20:25:38;;;;;;;;;;;;;;;8.90;100.00;100896.84;4918216;29;19961;-77
2023/10/23 20:28:24;;;;;;;;;;;;;;;8.89;100.00;100891.59;4918665;29;19942;-80
2023/10/23 20:31:19;;;;;;;;;;;;;;;8.89;100.00;100894.25;4907068;29;20649;-77
2023/10/23 20:34:05;;;;;;;;;;;;;;;8.89;100.00;100895.09;4921901;29;19931;-77
2023/10/23 20:36:50;;;;;;;;;;;;;;;8.89;100.00;100888.97;4926289;28;19926;-79
2023/10/23 20:39:37;;;;;;;;;;;;;;;8.88;100.00;100888.09;4926309;28;19935;-78
2023/10/23 20:42:22;;;;;;;;;;;;;;;8.88;100.00;100882.81;4930347;29;19989;-77
2023/10/23 20:45:08;;;;;;;;;;;;;;;8.87;100.00;100874.97;4943410;28;19978;-77
2023/10/23 20:47:54;;;;;;;;;;;;;;;8.86;100.00;100871.47;4937656;28;19981;-79
2023/10/23 20:50:40;;;;;;;;;;;;;;;8.85;100.00;100866.22;4943773;28;19930;-79
2023/10/23 20:53:28;;;;;;;;;;;;;;;8.83;100.00;100864.50;4946261;29;19941;-79
2023/10/23 20:56:16;;;;;;;;;;;;;;;8.82;100.00;100857.50;4945867;28;19931;-78
2023/10/23 20:59:06;;;;;;;;;;;;;;;8.82;100.00;100857.50;4946652;28;21808;-77
2023/10/23 21:01:52;;;;;;;;;;;;;;;8.83;100.00;100853.94;4942755;28;19931;-78
2023/10/23 21:04:38;;;;;;;;;;;;;;;8.86;100.00;100841.53;4940594;28;19941;-79
2023/10/23 21:07:23;;;;;;;;;;;;;;;8.89;100.00;100841.44;4944729;28;19922;-78
2023/10/23 21:10:09;;;;;;;;;;;;;;;8.92;100.00;100833.38;4927893;29;20002;-78
2023/10/23 21:12:55;;;;;;;;;;;;;;;8.93;100.00;100821.94;4941239;29;19961;-79
2023/10/23 21:15:44;;;;;;;;;;;;;;;8.95;100.00;100809.53;4942212;28;20394;-79
2023/10/23 21:18:29;;;;;;;;;;;;;;;8.98;100.00;100813.81;4913694;29;19937;-78
2023/10/23 21:21:15;;;;;;;;;;;;;;;8.98;100.00;100809.38;4944278;28;19962;-79
2023/10/23 21:24:00;;;;;;;;;;;;;;;8.99;100.00;100805.81;4942162;29;19930;-78
2023/10/23 21:26:46;;;;;;;;;;;;;;;8.97;100.00;100799.75;4929734;28;19970;-77
2023/10/23 21:29:32;;;;;;;;;;;;;;;8.95;100.00;100794.50;4942121;28;20020;-78
2023/10/23 21:32:17;;;;;;;;;;;;;;;8.95;100.00;100788.41;4941968;29;20389;-77
2023/10/23 21:35:03;;;;;;;;;;;;;;;8.95;100.00;100788.41;4929086;29;19970;-76
2023/10/23 21:37:49;;;;;;;;;;;;;;;8.94;100.00;100776.13;4943055;28;19935;-78
2023/10/23 21:40:34;;;;;;;;;;;;;;;8.92;100.00;100770.88;4941396;29;19934;-77
2023/10/23 21:43:20;;;;;;;;;;;;;;;8.93;100.00;100763.84;4942720;28;20413;-78
2023/10/23 21:46:08;;;;;;;;;;;;;;;8.91;100.00;100761.25;4940614;28;19934;-77
2023/10/23 21:48:54;;;;;;;;;;;;;;;8.90;100.00;100753.38;4942287;29;19926;-79
2023/10/23 21:51:42;;;;;;;;;;;;;;;8.88;100.00;100750.78;4943112;28;19970;-77
2023/10/23 21:54:28;;;;;;;;;;;;;;;8.86;100.00;100746.50;4941169;28;19978;-77
2023/10/23 21:57:14;;;;;;;;;;;;;;;8.87;100.00;100727.97;4942908;28;20005;-78
2023/10/23 22:00:01;;;;;;;;;;;;;;;8.89;100.00;100717.34;4941000;28;19931;-78
2023/10/23 22:02:46;;;;;;;;;;;;;;;8.87;100.00;100706.84;4945285;28;19945;-78
2023/10/23 22:05:32;;;;;;;;;;;;;;;8.87;100.00;100691.00;4943823;29;19951;-78
2023/10/23 22:08:18;;;;;;;;;;;;;;;8.86;100.00;100685.78;4928657;28;19922;-76
2023/10/23 22:11:06;;;;;;;;;;;;;;;8.83;100.00;100674.44;4944043;28;19930;-79
2023/10/23 22:13:52;;;;;;;;;;;;;;;8.85;100.00;100662.94;4944075;29;19930;-78
2023/10/23 22:16:40;;;;;;;;;;;;;;;8.86;100.00;100651.44;4944441;29;20350;-78
2023/10/23 22:19:29;;;;;;;;;;;;;;;8.87;100.00;100648.75;4947621;28;20391;-78
2023/10/23 22:22:17;;;;;;;;;;;;;;;8.90;100.00;100645.13;4927312;29;19931;-79
2023/10/23 22:25:04;;;;;;;;;;;;;;;8.91;100.00;100636.28;4935598;29;19922;-79
2023/10/23 22:27:50;;;;;;;;;;;;;;;8.92;100.00;100640.63;4948090;28;19989;-78
2023/10/23 22:30:35;;;;;;;;;;;;;;;8.93;100.00;100626.53;4946448;28;19930;-79
2023/10/23 22:33:21;;;;;;;;;;;;;;;8.94;100.00;100601.84;4929586;29;19938;-76
2023/10/23 22:36:09;;;;;;;;;;;;;;;8.95;100.00;100598.28;4929082;29;20831;-79
2023/10/23 22:38:55;;;;;;;;;;;;;;;8.96;100.00;100594.72;4945984;28;19935;-79
2023/10/23 22:41:41;;;;;;;;;;;;;;;8.95;100.00;100593.00;4945195;28;19933;-79
2023/10/23 22:44:26;;;;;;;;;;;;;;;8.95;100.00;100590.38;4933715;29;19937;-79
2023/10/23 22:47:12;;;;;;;;;;;;;;;8.95;100.00;100582.44;4945542;29;19934;-79
2023/10/23 22:49:58;;;;;;;;;;;;;;;8.96;100.00;100578.88;4943569;28;19931;-79
2023/10/23 22:52:43;;;;;;;;;;;;;;;8.95;100.00;100571.88;4926904;28;20301;-78